sensor_id;sensor_type;location;lat;lon;timestamp;P1;durP1;ratioP1;P2;durP2;ratioP2
22030;SDS011;11179;52.106;21.024;2023-07-02T00:01:09;39.53;;;18.27;;
22030;SDS011;11179;52.106;21.024;2023-07-02T00:03:34;33.93;;;18.30;;
22030;SDS011;11179;52.106;21.024;2023-07-02T00:05:59;36.53;;;17.90;;
22030;SDS011;11179;52.106;21.024;2023-07-02T00:08:25;32.10;;;17.30;;
22030;SDS011;11179;52.106;21.024;2023-07-02T00:10:50;40.63;;;18.73;;
22030;SDS011;11179;52.106;21.024;2023-07-02T00:13:15;35.60;;;18.00;;
22030;SDS011;11179;52.106;21.024;2023-07-02T00:15:41;36.30;;;18.40;;
22030;SDS011;11179;52.106;21.024;2023-07-02T00:18:06;33.70;;;17.00;;
22030;SDS011;11179;52.106;21.024;2023-07-02T00:20:32;37.20;;;18.73;;
22030;SDS011;11179;52.106;21.024;2023-07-02T00:23:02;37.53;;;18.50;;
22030;SDS011;11179;52.106;21.024;2023-07-02T00:25:31;38.90;;;19.23;;
22030;SDS011;11179;52.106;21.024;2023-07-02T00:27:56;34.93;;;19.00;;
22030;SDS011;11179;52.106;21.024;2023-07-02T00:30:22;35.80;;;17.77;;
22030;SDS011;11179;52.106;21.024;2023-07-02T00:32:47;36.33;;;19.00;;
22030;SDS011;11179;52.106;21.024;2023-07-02T00:35:12;36.40;;;17.57;;
22030;SDS011;11179;52.106;21.024;2023-07-02T00:37:37;34.63;;;17.00;;
22030;SDS011;11179;52.106;21.024;2023-07-02T00:40:03;33.80;;;17.73;;
22030;SDS011;11179;52.106;21.024;2023-07-02T00:42:29;36.40;;;19.80;;
22030;SDS011;11179;52.106;21.024;2023-07-02T00:44:55;37.63;;;20.33;;
22030;SDS011;11179;52.106;21.024;2023-07-02T00:47:22;37.23;;;19.60;;
22030;SDS011;11179;52.106;21.024;2023-07-02T00:49:47;35.37;;;18.33;;
22030;SDS011;11179;52.106;21.024;2023-07-02T00:52:13;40.23;;;19.77;;
22030;SDS011;11179;52.106;21.024;2023-07-02T00:54:38;38.40;;;20.10;;
22030;SDS011;11179;52.106;21.024;2023-07-02T00:57:05;36.70;;;19.37;;
22030;SDS011;11179;52.106;21.024;2023-07-02T00:59:31;41.57;;;19.33;;
22030;SDS011;11179;52.106;21.024;2023-07-02T01:02:00;40.37;;;19.67;;
22030;SDS011;11179;52.106;21.024;2023-07-02T01:04:26;39.50;;;19.23;;
22030;SDS011;11179;52.106;21.024;2023-07-02T01:06:52;42.63;;;22.70;;
22030;SDS011;11179;52.106;21.024;2023-07-02T01:09:22;35.87;;;20.77;;
22030;SDS011;11179;52.106;21.024;2023-07-02T01:11:51;36.20;;;19.70;;
22030;SDS011;11179;52.106;21.024;2023-07-02T01:14:27;41.73;;;20.17;;
22030;SDS011;11179;52.106;21.024;2023-07-02T01:16:55;35.90;;;19.30;;
22030;SDS011;11179;52.106;21.024;2023-07-02T01:22:11;41.77;;;17.73;;
22030;SDS011;11179;52.106;21.024;2023-07-02T01:24:40;38.10;;;17.93;;
22030;SDS011;11179;52.106;21.024;2023-07-02T01:27:06;35.03;;;17.70;;
22030;SDS011;11179;52.106;21.024;2023-07-02T01:29:32;32.07;;;17.40;;
22030;SDS011;11179;52.106;21.024;2023-07-02T01:32:01;34.67;;;18.13;;
22030;SDS011;11179;52.106;21.024;2023-07-02T01:34:27;32.10;;;16.70;;
22030;SDS011;11179;52.106;21.024;2023-07-02T01:36:53;35.30;;;16.87;;
22030;SDS011;11179;52.106;21.024;2023-07-02T01:39:18;34.50;;;17.77;;
22030;SDS011;11179;52.106;21.024;2023-07-02T01:41:51;39.60;;;20.93;;
22030;SDS011;11179;52.106;21.024;2023-07-02T01:44:18;41.13;;;20.90;;
22030;SDS011;11179;52.106;21.024;2023-07-02T01:46:45;34.67;;;19.33;;
22030;SDS011;11179;52.106;21.024;2023-07-02T01:49:14;39.10;;;21.20;;
22030;SDS011;11179;52.106;21.024;2023-07-02T01:51:55;37.63;;;19.83;;
22030;SDS011;11179;52.106;21.024;2023-07-02T01:54:21;42.57;;;20.60;;
22030;SDS011;11179;52.106;21.024;2023-07-02T01:56:48;41.53;;;20.63;;
22030;SDS011;11179;52.106;21.024;2023-07-02T01:59:14;41.50;;;22.13;;
22030;SDS011;11179;52.106;21.024;2023-07-02T02:01:39;42.10;;;21.47;;
22030;SDS011;11179;52.106;21.024;2023-07-02T02:04:06;40.97;;;21.90;;
22030;SDS011;11179;52.106;21.024;2023-07-02T02:06:34;42.07;;;21.27;;
22030;SDS011;11179;52.106;21.024;2023-07-02T02:09:01;37.67;;;20.23;;
22030;SDS011;11179;52.106;21.024;2023-07-02T02:11:28;41.77;;;20.83;;
22030;SDS011;11179;52.106;21.024;2023-07-02T02:13:53;38.40;;;20.67;;
22030;SDS011;11179;52.106;21.024;2023-07-02T02:16:19;43.40;;;20.27;;
22030;SDS011;11179;52.106;21.024;2023-07-02T02:18:45;38.47;;;20.77;;
22030;SDS011;11179;52.106;21.024;2023-07-02T02:21:10;43.80;;;21.33;;
22030;SDS011;11179;52.106;21.024;2023-07-02T02:23:35;44.80;;;22.23;;
22030;SDS011;11179;52.106;21.024;2023-07-02T02:26:01;42.97;;;21.83;;
22030;SDS011;11179;52.106;21.024;2023-07-02T02:28:26;39.03;;;21.00;;
22030;SDS011;11179;52.106;21.024;2023-07-02T02:30:51;38.40;;;19.33;;
22030;SDS011;11179;52.106;21.024;2023-07-02T02:33:17;45.00;;;22.43;;
22030;SDS011;11179;52.106;21.024;2023-07-02T02:35:42;41.90;;;22.60;;
22030;SDS011;11179;52.106;21.024;2023-07-02T02:38:07;37.40;;;20.17;;
22030;SDS011;11179;52.106;21.024;2023-07-02T02:40:32;38.90;;;21.00;;
22030;SDS011;11179;52.106;21.024;2023-07-02T02:42:58;39.47;;;20.87;;
22030;SDS011;11179;52.106;21.024;2023-07-02T02:45:23;39.37;;;21.70;;
22030;SDS011;11179;52.106;21.024;2023-07-02T02:47:48;43.73;;;20.53;;
22030;SDS011;11179;52.106;21.024;2023-07-02T02:50:14;38.77;;;21.57;;
22030;SDS011;11179;52.106;21.024;2023-07-02T02:52:39;45.63;;;22.10;;
22030;SDS011;11179;52.106;21.024;2023-07-02T02:55:05;37.93;;;20.73;;
22030;SDS011;11179;52.106;21.024;2023-07-02T02:57:32;35.70;;;19.90;;
22030;SDS011;11179;52.106;21.024;2023-07-02T02:59:59;40.07;;;20.97;;
22030;SDS011;11179;52.106;21.024;2023-07-02T03:02:24;35.93;;;20.37;;
22030;SDS011;11179;52.106;21.024;2023-07-02T03:04:50;32.50;;;18.73;;
22030;SDS011;11179;52.106;21.024;2023-07-02T03:07:15;40.70;;;20.20;;
22030;SDS011;11179;52.106;21.024;2023-07-02T03:09:41;37.00;;;20.10;;
22030;SDS011;11179;52.106;21.024;2023-07-02T03:12:06;41.00;;;20.93;;
22030;SDS011;11179;52.106;21.024;2023-07-02T03:14:32;37.93;;;18.83;;
22030;SDS011;11179;52.106;21.024;2023-07-02T03:16:57;40.77;;;20.87;;
22030;SDS011;11179;52.106;21.024;2023-07-02T03:19:23;37.93;;;20.80;;
22030;SDS011;11179;52.106;21.024;2023-07-02T03:21:48;36.17;;;20.47;;
22030;SDS011;11179;52.106;21.024;2023-07-02T03:24:14;37.87;;;20.73;;
22030;SDS011;11179;52.106;21.024;2023-07-02T03:26:39;39.67;;;21.20;;
22030;SDS011;11179;52.106;21.024;2023-07-02T03:29:05;38.67;;;20.20;;
22030;SDS011;11179;52.106;21.024;2023-07-02T03:31:31;35.03;;;18.67;;
22030;SDS011;11179;52.106;21.024;2023-07-02T03:33:57;36.13;;;20.20;;
22030;SDS011;11179;52.106;21.024;2023-07-02T03:36:22;33.73;;;19.20;;
22030;SDS011;11179;52.106;21.024;2023-07-02T03:38:47;37.40;;;20.23;;
22030;SDS011;11179;52.106;21.024;2023-07-02T03:41:13;38.07;;;20.77;;
22030;SDS011;11179;52.106;21.024;2023-07-02T03:43:38;34.23;;;18.50;;
22030;SDS011;11179;52.106;21.024;2023-07-02T03:46:03;33.97;;;19.13;;
22030;SDS011;11179;52.106;21.024;2023-07-02T03:48:29;33.23;;;18.77;;
22030;SDS011;11179;52.106;21.024;2023-07-02T03:50:54;36.90;;;20.43;;
22030;SDS011;11179;52.106;21.024;2023-07-02T03:53:19;36.83;;;18.00;;
22030;SDS011;11179;52.106;21.024;2023-07-02T03:55:45;41.83;;;19.43;;
22030;SDS011;11179;52.106;21.024;2023-07-02T03:58:10;32.90;;;16.80;;
22030;SDS011;11179;52.106;21.024;2023-07-02T04:00:35;35.23;;;18.07;;
22030;SDS011;11179;52.106;21.024;2023-07-02T04:03:01;29.40;;;17.10;;
22030;SDS011;11179;52.106;21.024;2023-07-02T04:05:27;32.00;;;17.13;;
22030;SDS011;11179;52.106;21.024;2023-07-02T04:07:52;33.60;;;17.00;;
22030;SDS011;11179;52.106;21.024;2023-07-02T04:10:17;29.50;;;16.43;;
22030;SDS011;11179;52.106;21.024;2023-07-02T04:12:43;39.23;;;16.53;;
22030;SDS011;11179;52.106;21.024;2023-07-02T04:15:09;28.07;;;15.67;;
22030;SDS011;11179;52.106;21.024;2023-07-02T04:17:35;33.20;;;16.00;;
22030;SDS011;11179;52.106;21.024;2023-07-02T04:20:01;33.33;;;16.10;;
22030;SDS011;11179;52.106;21.024;2023-07-02T04:22:28;29.03;;;15.60;;
22030;SDS011;11179;52.106;21.024;2023-07-02T04:24:53;26.30;;;14.90;;
22030;SDS011;11179;52.106;21.024;2023-07-02T04:27:19;34.43;;;16.63;;
22030;SDS011;11179;52.106;21.024;2023-07-02T04:29:44;27.53;;;15.50;;
22030;SDS011;11179;52.106;21.024;2023-07-02T04:32:09;36.70;;;15.27;;
22030;SDS011;11179;52.106;21.024;2023-07-02T04:34:35;25.30;;;14.40;;
22030;SDS011;11179;52.106;21.024;2023-07-02T04:37:01;29.53;;;14.77;;
22030;SDS011;11179;52.106;21.024;2023-07-02T04:39:28;24.90;;;14.63;;
22030;SDS011;11179;52.106;21.024;2023-07-02T04:41:53;25.50;;;13.23;;
22030;SDS011;11179;52.106;21.024;2023-07-02T04:44:19;24.50;;;13.80;;
22030;SDS011;11179;52.106;21.024;2023-07-02T04:46:47;26.20;;;13.27;;
22030;SDS011;11179;52.106;21.024;2023-07-02T04:49:12;24.83;;;13.73;;
22030;SDS011;11179;52.106;21.024;2023-07-02T04:51:37;24.60;;;12.03;;
22030;SDS011;11179;52.106;21.024;2023-07-02T04:54:03;23.57;;;12.53;;
22030;SDS011;11179;52.106;21.024;2023-07-02T04:56:28;25.73;;;12.90;;
22030;SDS011;11179;52.106;21.024;2023-07-02T04:58:53;28.07;;;13.17;;
22030;SDS011;11179;52.106;21.024;2023-07-02T05:01:19;25.50;;;12.03;;
22030;SDS011;11179;52.106;21.024;2023-07-02T05:03:44;22.57;;;12.10;;
22030;SDS011;11179;52.106;21.024;2023-07-02T05:06:09;23.40;;;11.73;;
22030;SDS011;11179;52.106;21.024;2023-07-02T05:08:34;22.57;;;12.90;;
22030;SDS011;11179;52.106;21.024;2023-07-02T05:11:01;23.13;;;11.70;;
22030;SDS011;11179;52.106;21.024;2023-07-02T05:13:26;20.33;;;11.83;;
22030;SDS011;11179;52.106;21.024;2023-07-02T05:15:52;21.50;;;11.57;;
22030;SDS011;11179;52.106;21.024;2023-07-02T05:18:17;19.63;;;12.33;;
22030;SDS011;11179;52.106;21.024;2023-07-02T05:20:42;24.33;;;13.03;;
22030;SDS011;11179;52.106;21.024;2023-07-02T05:23:08;22.63;;;11.70;;
22030;SDS011;11179;52.106;21.024;2023-07-02T05:25:33;23.07;;;12.83;;
22030;SDS011;11179;52.106;21.024;2023-07-02T05:27:58;23.63;;;11.47;;
22030;SDS011;11179;52.106;21.024;2023-07-02T05:30:24;22.73;;;11.70;;
22030;SDS011;11179;52.106;21.024;2023-07-02T05:32:49;21.23;;;10.87;;
22030;SDS011;11179;52.106;21.024;2023-07-02T05:35:14;20.73;;;10.80;;
22030;SDS011;11179;52.106;21.024;2023-07-02T05:37:40;19.50;;;10.83;;
22030;SDS011;11179;52.106;21.024;2023-07-02T05:40:05;21.03;;;10.73;;
22030;SDS011;11179;52.106;21.024;2023-07-02T05:42:31;21.13;;;11.57;;
22030;SDS011;11179;52.106;21.024;2023-07-02T05:44:56;19.80;;;10.97;;
22030;SDS011;11179;52.106;21.024;2023-07-02T05:47:22;18.70;;;10.00;;
22030;SDS011;11179;52.106;21.024;2023-07-02T05:49:47;19.83;;;11.57;;
22030;SDS011;11179;52.106;21.024;2023-07-02T05:52:12;18.13;;;10.17;;
22030;SDS011;11179;52.106;21.024;2023-07-02T05:54:41;19.40;;;9.70;;
22030;SDS011;11179;52.106;21.024;2023-07-02T05:57:06;18.83;;;9.83;;
22030;SDS011;11179;52.106;21.024;2023-07-02T05:59:31;16.20;;;9.57;;
22030;SDS011;11179;52.106;21.024;2023-07-02T06:01:57;18.10;;;10.10;;
22030;SDS011;11179;52.106;21.024;2023-07-02T06:04:22;24.57;;;10.47;;
22030;SDS011;11179;52.106;21.024;2023-07-02T06:06:47;21.33;;;9.10;;
22030;SDS011;11179;52.106;21.024;2023-07-02T06:09:12;18.03;;;9.40;;
22030;SDS011;11179;52.106;21.024;2023-07-02T06:11:38;18.30;;;9.67;;
22030;SDS011;11179;52.106;21.024;2023-07-02T06:14:03;18.70;;;9.60;;
22030;SDS011;11179;52.106;21.024;2023-07-02T06:16:28;18.13;;;10.00;;
22030;SDS011;11179;52.106;21.024;2023-07-02T06:18:54;18.03;;;9.67;;
22030;SDS011;11179;52.106;21.024;2023-07-02T06:21:19;16.57;;;9.53;;
22030;SDS011;11179;52.106;21.024;2023-07-02T06:23:45;18.23;;;10.00;;
22030;SDS011;11179;52.106;21.024;2023-07-02T06:26:10;22.63;;;9.83;;
22030;SDS011;11179;52.106;21.024;2023-07-02T06:28:36;16.73;;;9.03;;
22030;SDS011;11179;52.106;21.024;2023-07-02T06:31:01;15.47;;;9.07;;
22030;SDS011;11179;52.106;21.024;2023-07-02T06:33:27;21.60;;;9.60;;
22030;SDS011;11179;52.106;21.024;2023-07-02T06:35:52;19.93;;;8.90;;
22030;SDS011;11179;52.106;21.024;2023-07-02T06:38:18;17.67;;;9.17;;
22030;SDS011;11179;52.106;21.024;2023-07-02T06:40:43;18.03;;;8.83;;
22030;SDS011;11179;52.106;21.024;2023-07-02T06:43:08;19.13;;;9.07;;
22030;SDS011;11179;52.106;21.024;2023-07-02T06:45:34;19.97;;;9.83;;
22030;SDS011;11179;52.106;21.024;2023-07-02T06:48:00;17.00;;;9.43;;
22030;SDS011;11179;52.106;21.024;2023-07-02T06:50:25;14.67;;;7.70;;
22030;SDS011;11179;52.106;21.024;2023-07-02T06:52:50;20.50;;;8.80;;
22030;SDS011;11179;52.106;21.024;2023-07-02T06:55:15;14.27;;;6.60;;
22030;SDS011;11179;52.106;21.024;2023-07-02T06:57:42;17.47;;;8.27;;
22030;SDS011;11179;52.106;21.024;2023-07-02T07:00:09;16.00;;;7.57;;
22030;SDS011;11179;52.106;21.024;2023-07-02T07:02:35;16.03;;;8.53;;
22030;SDS011;11179;52.106;21.024;2023-07-02T07:05:00;16.10;;;8.03;;
22030;SDS011;11179;52.106;21.024;2023-07-02T07:07:25;13.77;;;7.60;;
22030;SDS011;11179;52.106;21.024;2023-07-02T07:09:51;13.00;;;6.70;;
22030;SDS011;11179;52.106;21.024;2023-07-02T07:12:16;13.40;;;7.17;;
22030;SDS011;11179;52.106;21.024;2023-07-02T07:14:41;16.50;;;6.70;;
22030;SDS011;11179;52.106;21.024;2023-07-02T07:17:07;12.63;;;7.10;;
22030;SDS011;11179;52.106;21.024;2023-07-02T07:19:32;12.80;;;5.97;;
22030;SDS011;11179;52.106;21.024;2023-07-02T07:21:57;14.70;;;7.37;;
22030;SDS011;11179;52.106;21.024;2023-07-02T07:24:23;12.20;;;6.47;;
22030;SDS011;11179;52.106;21.024;2023-07-02T07:26:48;17.97;;;6.50;;
22030;SDS011;11179;52.106;21.024;2023-07-02T07:29:14;12.77;;;6.30;;
22030;SDS011;11179;52.106;21.024;2023-07-02T07:31:39;12.40;;;6.27;;
22030;SDS011;11179;52.106;21.024;2023-07-02T07:34:05;12.27;;;5.97;;
22030;SDS011;11179;52.106;21.024;2023-07-02T07:36:30;11.33;;;6.00;;
22030;SDS011;11179;52.106;21.024;2023-07-02T07:38:55;11.70;;;5.60;;
22030;SDS011;11179;52.106;21.024;2023-07-02T07:41:20;16.07;;;6.63;;
22030;SDS011;11179;52.106;21.024;2023-07-02T07:43:46;12.00;;;6.30;;
22030;SDS011;11179;52.106;21.024;2023-07-02T07:46:11;16.30;;;6.70;;
22030;SDS011;11179;52.106;21.024;2023-07-02T07:48:36;12.23;;;5.27;;
22030;SDS011;11179;52.106;21.024;2023-07-02T07:51:02;17.47;;;6.23;;
22030;SDS011;11179;52.106;21.024;2023-07-02T07:53:28;11.00;;;5.60;;
22030;SDS011;11179;52.106;21.024;2023-07-02T07:55:53;14.53;;;5.27;;
22030;SDS011;11179;52.106;21.024;2023-07-02T07:58:18;14.57;;;5.30;;
22030;SDS011;11179;52.106;21.024;2023-07-02T08:00:44;9.53;;;4.40;;
22030;SDS011;11179;52.106;21.024;2023-07-02T08:03:09;10.23;;;4.57;;
22030;SDS011;11179;52.106;21.024;2023-07-02T08:05:35;13.43;;;4.60;;
22030;SDS011;11179;52.106;21.024;2023-07-02T08:08:00;8.70;;;4.40;;
22030;SDS011;11179;52.106;21.024;2023-07-02T08:10:26;8.50;;;4.53;;
22030;SDS011;11179;52.106;21.024;2023-07-02T08:12:52;10.00;;;4.10;;
22030;SDS011;11179;52.106;21.024;2023-07-02T08:15:18;9.80;;;4.70;;
22030;SDS011;11179;52.106;21.024;2023-07-02T08:17:44;9.17;;;4.70;;
22030;SDS011;11179;52.106;21.024;2023-07-02T08:20:09;10.10;;;5.10;;
22030;SDS011;11179;52.106;21.024;2023-07-02T08:22:35;14.10;;;4.80;;
22030;SDS011;11179;52.106;21.024;2023-07-02T08:25:02;11.40;;;4.50;;
22030;SDS011;11179;52.106;21.024;2023-07-02T08:27:27;8.93;;;4.50;;
22030;SDS011;11179;52.106;21.024;2023-07-02T08:29:53;10.30;;;4.93;;
22030;SDS011;11179;52.106;21.024;2023-07-02T08:32:18;7.97;;;4.17;;
22030;SDS011;11179;52.106;21.024;2023-07-02T08:34:44;11.47;;;4.40;;
22030;SDS011;11179;52.106;21.024;2023-07-02T08:37:09;8.57;;;3.70;;
22030;SDS011;11179;52.106;21.024;2023-07-02T08:39:34;8.20;;;3.53;;
22030;SDS011;11179;52.106;21.024;2023-07-02T08:42:02;8.67;;;4.10;;
22030;SDS011;11179;52.106;21.024;2023-07-02T08:44:27;11.57;;;4.30;;
22030;SDS011;11179;52.106;21.024;2023-07-02T08:46:53;7.20;;;3.30;;
22030;SDS011;11179;52.106;21.024;2023-07-02T08:49:21;9.90;;;3.93;;
22030;SDS011;11179;52.106;21.024;2023-07-02T08:51:46;8.47;;;3.60;;
22030;SDS011;11179;52.106;21.024;2023-07-02T08:54:12;9.93;;;4.00;;
22030;SDS011;11179;52.106;21.024;2023-07-02T08:56:39;9.00;;;4.27;;
22030;SDS011;11179;52.106;21.024;2023-07-02T08:59:08;7.33;;;3.40;;
22030;SDS011;11179;52.106;21.024;2023-07-02T09:01:50;9.47;;;3.43;;
22030;SDS011;11179;52.106;21.024;2023-07-02T09:04:20;10.30;;;4.17;;
22030;SDS011;11179;52.106;21.024;2023-07-02T09:06:49;10.90;;;4.10;;
22030;SDS011;11179;52.106;21.024;2023-07-02T09:09:29;15.40;;;3.70;;
22030;SDS011;11179;52.106;21.024;2023-07-02T09:11:54;9.13;;;3.93;;
22030;SDS011;11179;52.106;21.024;2023-07-02T09:14:26;9.50;;;3.80;;
22030;SDS011;11179;52.106;21.024;2023-07-02T09:17:06;7.97;;;3.63;;
22030;SDS011;11179;52.106;21.024;2023-07-02T09:19:34;9.10;;;3.57;;
22030;SDS011;11179;52.106;21.024;2023-07-02T09:22:00;7.77;;;4.17;;
22030;SDS011;11179;52.106;21.024;2023-07-02T09:24:27;16.53;;;4.17;;
22030;SDS011;11179;52.106;21.024;2023-07-02T09:26:55;9.00;;;3.70;;
22030;SDS011;11179;52.106;21.024;2023-07-02T09:29:31;8.13;;;3.70;;
22030;SDS011;11179;52.106;21.024;2023-07-02T09:32:06;13.30;;;4.17;;
22030;SDS011;11179;52.106;21.024;2023-07-02T09:34:33;8.80;;;4.60;;
22030;SDS011;11179;52.106;21.024;2023-07-02T09:37:00;7.33;;;3.90;;
22030;SDS011;11179;52.106;21.024;2023-07-02T09:39:27;10.67;;;3.83;;
22030;SDS011;11179;52.106;21.024;2023-07-02T09:41:57;10.63;;;3.70;;
22030;SDS011;11179;52.106;21.024;2023-07-02T09:44:30;8.43;;;3.63;;
22030;SDS011;11179;52.106;21.024;2023-07-02T09:49:33;11.70;;;4.07;;
22030;SDS011;11179;52.106;21.024;2023-07-02T09:52:00;8.83;;;4.00;;
22030;SDS011;11179;52.106;21.024;2023-07-02T09:54:27;7.87;;;3.37;;
22030;SDS011;11179;52.106;21.024;2023-07-02T09:56:53;8.33;;;3.80;;
22030;SDS011;11179;52.106;21.024;2023-07-02T09:59:19;8.43;;;4.00;;
22030;SDS011;11179;52.106;21.024;2023-07-02T10:01:44;8.37;;;2.77;;
22030;SDS011;11179;52.106;21.024;2023-07-02T10:04:11;9.00;;;4.07;;
22030;SDS011;11179;52.106;21.024;2023-07-02T10:09:11;8.63;;;3.67;;
22030;SDS011;11179;52.106;21.024;2023-07-02T10:11:36;6.63;;;3.57;;
22030;SDS011;11179;52.106;21.024;2023-07-02T10:14:02;6.90;;;3.63;;
22030;SDS011;11179;52.106;21.024;2023-07-02T10:16:27;10.80;;;3.80;;
22030;SDS011;11179;52.106;21.024;2023-07-02T10:18:53;8.60;;;3.70;;
22030;SDS011;11179;52.106;21.024;2023-07-02T10:21:19;7.47;;;3.60;;
22030;SDS011;11179;52.106;21.024;2023-07-02T10:23:44;8.40;;;4.03;;
22030;SDS011;11179;52.106;21.024;2023-07-02T10:26:16;6.60;;;3.20;;
22030;SDS011;11179;52.106;21.024;2023-07-02T10:28:43;7.40;;;3.37;;
22030;SDS011;11179;52.106;21.024;2023-07-02T10:31:20;7.03;;;3.37;;
22030;SDS011;11179;52.106;21.024;2023-07-02T10:33:46;7.43;;;2.53;;
22030;SDS011;11179;52.106;21.024;2023-07-02T10:36:19;5.57;;;2.70;;
22030;SDS011;11179;52.106;21.024;2023-07-02T10:38:48;7.37;;;2.60;;
22030;SDS011;11179;52.106;21.024;2023-07-02T10:41:24;10.03;;;3.27;;
22030;SDS011;11179;52.106;21.024;2023-07-02T10:43:52;6.90;;;2.97;;
22030;SDS011;11179;52.106;21.024;2023-07-02T10:46:23;6.17;;;2.80;;
22030;SDS011;11179;52.106;21.024;2023-07-02T10:48:52;8.33;;;2.83;;
22030;SDS011;11179;52.106;21.024;2023-07-02T10:51:22;5.80;;;2.93;;
22030;SDS011;11179;52.106;21.024;2023-07-02T10:54:01;6.03;;;3.00;;
22030;SDS011;11179;52.106;21.024;2023-07-02T10:56:29;6.33;;;3.10;;
22030;SDS011;11179;52.106;21.024;2023-07-02T10:58:55;6.53;;;2.80;;
22030;SDS011;11179;52.106;21.024;2023-07-02T11:01:24;5.57;;;2.50;;
22030;SDS011;11179;52.106;21.024;2023-07-02T11:03:57;8.60;;;3.10;;
22030;SDS011;11179;52.106;21.024;2023-07-02T11:06:24;6.70;;;3.33;;
22030;SDS011;11179;52.106;21.024;2023-07-02T11:08:51;6.13;;;3.03;;
22030;SDS011;11179;52.106;21.024;2023-07-02T11:11:16;6.63;;;2.97;;
22030;SDS011;11179;52.106;21.024;2023-07-02T11:13:45;9.30;;;3.07;;
22030;SDS011;11179;52.106;21.024;2023-07-02T11:16:20;8.50;;;3.80;;
22030;SDS011;11179;52.106;21.024;2023-07-02T11:19:07;7.43;;;2.70;;
22030;SDS011;11179;52.106;21.024;2023-07-02T11:21:33;6.03;;;2.80;;
22030;SDS011;11179;52.106;21.024;2023-07-02T11:24:02;11.10;;;3.43;;
22030;SDS011;11179;52.106;21.024;2023-07-02T11:26:37;6.30;;;2.97;;
22030;SDS011;11179;52.106;21.024;2023-07-02T11:29:03;8.77;;;2.90;;
22030;SDS011;11179;52.106;21.024;2023-07-02T11:31:35;7.13;;;2.87;;
22030;SDS011;11179;52.106;21.024;2023-07-02T11:34:00;11.10;;;3.03;;
22030;SDS011;11179;52.106;21.024;2023-07-02T11:36:26;6.43;;;2.90;;
22030;SDS011;11179;52.106;21.024;2023-07-02T11:38:51;7.90;;;2.77;;
22030;SDS011;11179;52.106;21.024;2023-07-02T11:41:20;5.17;;;2.60;;
22030;SDS011;11179;52.106;21.024;2023-07-02T11:43:46;5.67;;;2.73;;
22030;SDS011;11179;52.106;21.024;2023-07-02T11:46:12;7.33;;;3.10;;
22030;SDS011;11179;52.106;21.024;2023-07-02T11:48:38;6.07;;;2.43;;
22030;SDS011;11179;52.106;21.024;2023-07-02T11:51:03;8.40;;;3.20;;
22030;SDS011;11179;52.106;21.024;2023-07-02T11:53:29;5.67;;;2.60;;
22030;SDS011;11179;52.106;21.024;2023-07-02T11:55:54;11.03;;;2.80;;
22030;SDS011;11179;52.106;21.024;2023-07-02T11:58:19;5.70;;;2.50;;
22030;SDS011;11179;52.106;21.024;2023-07-02T12:00:44;5.47;;;2.20;;
22030;SDS011;11179;52.106;21.024;2023-07-02T12:03:10;5.80;;;2.67;;
22030;SDS011;11179;52.106;21.024;2023-07-02T12:05:35;6.03;;;2.77;;
22030;SDS011;11179;52.106;21.024;2023-07-02T12:08:01;8.60;;;2.63;;
22030;SDS011;11179;52.106;21.024;2023-07-02T12:10:26;5.13;;;2.23;;
22030;SDS011;11179;52.106;21.024;2023-07-02T12:12:52;6.10;;;2.77;;
22030;SDS011;11179;52.106;21.024;2023-07-02T12:15:17;6.60;;;2.80;;
22030;SDS011;11179;52.106;21.024;2023-07-02T12:17:45;7.30;;;3.13;;
22030;SDS011;11179;52.106;21.024;2023-07-02T12:20:11;5.40;;;2.50;;
22030;SDS011;11179;52.106;21.024;2023-07-02T12:22:36;7.03;;;2.60;;
22030;SDS011;11179;52.106;21.024;2023-07-02T12:25:02;5.20;;;2.03;;
22030;SDS011;11179;52.106;21.024;2023-07-02T12:27:27;6.43;;;2.40;;
22030;SDS011;11179;52.106;21.024;2023-07-02T12:29:53;7.73;;;2.47;;
22030;SDS011;11179;52.106;21.024;2023-07-02T12:32:18;7.50;;;2.67;;
22030;SDS011;11179;52.106;21.024;2023-07-02T12:34:43;8.20;;;2.80;;
22030;SDS011;11179;52.106;21.024;2023-07-02T12:37:09;6.80;;;2.60;;
22030;SDS011;11179;52.106;21.024;2023-07-02T12:39:34;5.63;;;2.50;;
22030;SDS011;11179;52.106;21.024;2023-07-02T12:42:00;4.77;;;2.10;;
22030;SDS011;11179;52.106;21.024;2023-07-02T12:44:25;6.40;;;2.30;;
22030;SDS011;11179;52.106;21.024;2023-07-02T12:46:50;5.23;;;2.20;;
22030;SDS011;11179;52.106;21.024;2023-07-02T12:49:16;5.03;;;2.20;;
22030;SDS011;11179;52.106;21.024;2023-07-02T12:51:41;8.30;;;2.20;;
22030;SDS011;11179;52.106;21.024;2023-07-02T12:54:06;8.33;;;2.33;;
22030;SDS011;11179;52.106;21.024;2023-07-02T12:56:31;4.73;;;1.87;;
22030;SDS011;11179;52.106;21.024;2023-07-02T12:58:57;5.33;;;2.13;;
22030;SDS011;11179;52.106;21.024;2023-07-02T13:01:22;8.70;;;2.40;;
22030;SDS011;11179;52.106;21.024;2023-07-02T13:03:48;5.33;;;2.50;;
22030;SDS011;11179;52.106;21.024;2023-07-02T13:06:14;4.87;;;1.90;;
22030;SDS011;11179;52.106;21.024;2023-07-02T13:08:39;5.10;;;2.10;;
22030;SDS011;11179;52.106;21.024;2023-07-02T13:11:05;7.40;;;1.63;;
22030;SDS011;11179;52.106;21.024;2023-07-02T13:13:30;6.57;;;2.20;;
22030;SDS011;11179;52.106;21.024;2023-07-02T13:15:56;4.80;;;1.80;;
22030;SDS011;11179;52.106;21.024;2023-07-02T13:18:22;5.90;;;1.80;;
22030;SDS011;11179;52.106;21.024;2023-07-02T13:20:48;6.53;;;1.97;;
22030;SDS011;11179;52.106;21.024;2023-07-02T13:23:13;10.13;;;3.07;;
22030;SDS011;11179;52.106;21.024;2023-07-02T13:25:38;6.80;;;2.20;;
22030;SDS011;11179;52.106;21.024;2023-07-02T13:28:04;5.30;;;1.83;;
22030;SDS011;11179;52.106;21.024;2023-07-02T13:30:29;6.10;;;1.83;;
22030;SDS011;11179;52.106;21.024;2023-07-02T13:32:56;6.53;;;2.00;;
22030;SDS011;11179;52.106;21.024;2023-07-02T13:35:21;4.73;;;1.90;;
22030;SDS011;11179;52.106;21.024;2023-07-02T13:37:47;6.50;;;2.43;;
22030;SDS011;11179;52.106;21.024;2023-07-02T13:40:13;6.67;;;2.00;;
22030;SDS011;11179;52.106;21.024;2023-07-02T13:42:40;7.93;;;2.17;;
22030;SDS011;11179;52.106;21.024;2023-07-02T13:45:07;6.07;;;2.23;;
22030;SDS011;11179;52.106;21.024;2023-07-02T13:47:33;6.70;;;1.70;;
22030;SDS011;11179;52.106;21.024;2023-07-02T13:49:59;5.30;;;2.20;;
22030;SDS011;11179;52.106;21.024;2023-07-02T13:52:24;4.60;;;1.73;;
22030;SDS011;11179;52.106;21.024;2023-07-02T13:54:49;5.20;;;2.00;;
22030;SDS011;11179;52.106;21.024;2023-07-02T13:57:15;7.47;;;2.30;;
22030;SDS011;11179;52.106;21.024;2023-07-02T13:59:40;6.27;;;2.10;;
22030;SDS011;11179;52.106;21.024;2023-07-02T14:02:05;6.07;;;2.00;;
22030;SDS011;11179;52.106;21.024;2023-07-02T14:04:31;6.00;;;2.67;;
22030;SDS011;11179;52.106;21.024;2023-07-02T14:06:57;6.30;;;2.20;;
22030;SDS011;11179;52.106;21.024;2023-07-02T14:09:22;6.00;;;1.87;;
22030;SDS011;11179;52.106;21.024;2023-07-02T14:11:47;6.00;;;2.10;;
22030;SDS011;11179;52.106;21.024;2023-07-02T14:14:13;10.40;;;2.47;;
22030;SDS011;11179;52.106;21.024;2023-07-02T14:16:38;8.37;;;2.40;;
22030;SDS011;11179;52.106;21.024;2023-07-02T14:19:03;8.27;;;2.20;;
22030;SDS011;11179;52.106;21.024;2023-07-02T14:21:29;6.37;;;2.67;;
22030;SDS011;11179;52.106;21.024;2023-07-02T14:23:54;6.30;;;2.87;;